Chancay, Peru
Current Conditions -  °F | °C
As of 1:00 AM on Thursday 27 Nov 2014 (Local Time) from SPIM Reporting Station
Broken Clouds Broken Clouds  
Wind Chill: 64°   Ceiling: 1800
Heat Index: 64°   Visibility: 6mi
Dew Point: 61°   Wind: 7mph
Humidity: 88%   Direction: 170°S
Pressure: 29.97"   Gusts: NA
Location:  11.56°S, 77.27°W
Report Text: SPIM 270600Z 17006KT 9999 BKN018 18/16 Q1015 NOSIG RMK PP000
Loading
Personal Weather Stations






























Interactive Weather Map New forecast layout! Learn more

10-Day Weather Forecast

Advertisements
Track Severe Weather on mobile